createdAt,value
2023-12-11T00:00:53.929Z,20.58
2023-12-11T00:04:56.863Z,26.75
2023-12-11T00:08:59.804Z,20.58
2023-12-11T00:13:04.272Z,19.08
2023-12-11T00:17:07.312Z,19.38
2023-12-11T00:21:10.356Z,20.45
2023-12-11T00:25:14.605Z,22.10
2023-12-11T00:29:17.530Z,24.05
2023-12-11T00:33:20.652Z,24.00
2023-12-11T00:37:23.659Z,21.80
2023-12-11T00:41:26.592Z,19.17
2023-12-11T00:45:29.667Z,23.73
2023-12-11T00:49:33.214Z,22.00
2023-12-11T00:53:36.288Z,24.20
2023-12-11T00:57:39.363Z,19.55
2023-12-11T01:01:43.372Z,23.48
2023-12-11T01:05:46.591Z,23.83
2023-12-11T01:09:49.554Z,29.77
2023-12-11T01:13:52.419Z,24.70
2023-12-11T01:17:55.643Z,24.60
2023-12-11T01:21:58.874Z,25.35
2023-12-11T01:26:02.072Z,24.52
2023-12-11T01:30:05.915Z,24.80
2023-12-11T01:34:08.996Z,21.45
2023-12-11T01:38:11.990Z,24.30
2023-12-11T01:42:15.167Z,22.10
2023-12-11T01:46:19.826Z,24.90
2023-12-11T01:50:22.818Z,28.98
2023-12-11T01:54:26.146Z,26.65
2023-12-11T01:58:31.187Z,26.20
2023-12-11T02:02:34.155Z,25.20
2023-12-11T02:06:37.100Z,28.88
2023-12-11T02:10:39.997Z,30.60
2023-12-11T02:14:42.857Z,26.38
2023-12-11T02:18:46.365Z,25.40
2023-12-11T02:22:49.713Z,26.42
2023-12-11T02:26:52.806Z,29.33
2023-12-11T02:30:56.222Z,26.92
2023-12-11T02:34:59.251Z,32.22
2023-12-11T02:39:02.428Z,29.50
2023-12-11T02:43:05.527Z,32.63
2023-12-11T02:47:08.503Z,30.70
2023-12-11T02:51:11.476Z,41.65
2023-12-11T02:55:14.495Z,34.20
2023-12-11T02:59:17.477Z,33.47
2023-12-11T03:03:20.435Z,43.90
2023-12-11T03:07:23.551Z,40.05
2023-12-11T03:11:26.529Z,56.00
2023-12-11T03:15:32.532Z,40.90
2023-12-11T03:19:35.768Z,45.80
2023-12-11T03:23:40.946Z,46.35
2023-12-11T03:27:43.982Z,29.75
2023-12-11T03:31:46.876Z,29.73
2023-12-11T03:35:49.880Z,44.42
2023-12-11T03:39:52.877Z,80.47
2023-12-11T03:43:55.866Z,39.22
2023-12-11T03:47:58.860Z,37.65
2023-12-11T03:52:01.825Z,33.15
2023-12-11T03:56:05.165Z,32.58
2023-12-11T04:00:08.829Z,31.02
2023-12-11T04:04:11.912Z,35.63
2023-12-11T04:08:15.052Z,37.72
2023-12-11T04:12:17.916Z,26.23
2023-12-11T04:16:20.823Z,36.33
2023-12-11T04:20:23.818Z,31.92
2023-12-11T04:24:26.730Z,30.45
2023-12-11T04:28:30.052Z,28.65
2023-12-11T04:32:33.145Z,26.13
2023-12-11T04:36:35.989Z,26.30
2023-12-11T04:40:38.968Z,31.48
2023-12-11T04:44:41.853Z,30.27
2023-12-11T04:48:44.957Z,31.27
2023-12-11T04:52:47.908Z,29.25
2023-12-11T04:56:50.792Z,30.17
2023-12-11T05:00:54.206Z,32.42
2023-12-11T05:04:57.693Z,29.63
2023-12-11T05:09:00.709Z,28.90
2023-12-11T05:13:03.725Z,27.25
2023-12-11T05:17:06.703Z,25.63
2023-12-11T05:21:10.773Z,24.15
2023-12-11T05:25:13.893Z,26.15
2023-12-11T05:29:18.054Z,26.85
2023-12-11T05:33:21.293Z,24.77
2023-12-11T05:37:24.521Z,22.90
2023-12-11T05:41:27.637Z,25.55
2023-12-11T05:45:30.659Z,25.65
2023-12-11T05:49:33.525Z,23.58
2023-12-11T05:53:36.436Z,25.55
2023-12-11T05:57:43.425Z,30.35
2023-12-11T06:01:49.493Z,24.33
2023-12-11T06:05:59.542Z,28.13
2023-12-11T06:10:05.210Z,23.58
2023-12-11T06:14:08.195Z,28.15
2023-12-11T06:18:12.175Z,27.90
2023-12-11T06:22:15.520Z,25.33
2023-12-11T06:26:30.274Z,27.05
2023-12-11T06:30:33.743Z,28.13
2023-12-11T06:34:37.107Z,26.20
2023-12-11T06:38:42.971Z,23.63
2023-12-11T06:42:46.936Z,23.92
2023-12-11T06:46:49.881Z,23.92
2023-12-11T06:50:54.409Z,26.70
2023-12-11T06:54:57.367Z,27.15
2023-12-11T06:59:00.304Z,21.38
2023-12-11T07:03:04.054Z,24.83
2023-12-11T07:07:07.463Z,25.90
2023-12-11T07:11:10.353Z,28.73
2023-12-11T07:15:13.454Z,30.77
2023-12-11T07:19:16.425Z,28.85
2023-12-11T07:23:19.581Z,23.95
2023-12-11T07:27:22.538Z,26.08
2023-12-11T07:31:25.463Z,24.77
2023-12-11T07:35:28.360Z,24.60
2023-12-11T07:39:31.233Z,23.88
2023-12-11T07:43:34.291Z,23.75
2023-12-11T07:47:37.696Z,21.35
2023-12-11T07:51:40.768Z,22.05
2023-12-11T07:55:43.614Z,21.73
2023-12-11T07:59:46.762Z,22.10
2023-12-11T08:03:49.969Z,17.70
2023-12-11T08:07:52.971Z,22.50
2023-12-11T08:11:56.102Z,19.15
2023-12-11T08:15:59.022Z,20.67
2023-12-11T08:20:02.312Z,19.77
2023-12-11T08:24:05.810Z,18.17
2023-12-11T08:28:09.781Z,23.08
2023-12-11T08:32:13.386Z,19.38
2023-12-11T08:36:16.192Z,19.45
2023-12-11T08:40:19.279Z,14.40
2023-12-11T08:44:22.247Z,17.65
2023-12-11T08:48:28.339Z,23.35
2023-12-11T08:52:32.431Z,20.38
2023-12-11T08:56:35.361Z,17.67
2023-12-11T09:00:38.214Z,20.23
2023-12-11T09:04:41.197Z,16.23
2023-12-11T09:08:44.126Z,19.25
2023-12-11T09:12:47.200Z,18.75
2023-12-11T09:16:50.992Z,19.65
2023-12-11T09:20:53.935Z,18.38
2023-12-11T09:24:56.908Z,18.38
2023-12-11T09:28:59.921Z,17.20
2023-12-11T09:33:06.688Z,13.77
2023-12-11T09:41:13.239Z,19.85
2023-12-11T09:45:22.926Z,14.73
2023-12-11T09:49:29.208Z,16.67
2023-12-11T09:53:34.897Z,14.93
2023-12-11T09:57:41.114Z,14.45
2023-12-11T10:01:48.120Z,14.27
2023-12-11T10:05:51.244Z,12.35
2023-12-11T10:09:55.643Z,14.30
2023-12-11T10:14:12.112Z,13.82
2023-12-11T10:18:15.039Z,14.38
2023-12-11T10:22:32.427Z,13.40
2023-12-11T10:26:39.668Z,12.38
2023-12-11T10:31:00.843Z,13.90
2023-12-11T10:35:04.219Z,11.73
2023-12-11T10:39:12.319Z,12.38
2023-12-11T10:43:15.355Z,17.00
2023-12-11T10:47:22.130Z,15.23
2023-12-11T10:55:28.258Z,12.10
2023-12-11T10:59:34.906Z,13.70
2023-12-11T11:03:38.028Z,12.00
2023-12-11T11:07:53.740Z,11.60
2023-12-11T11:12:07.691Z,14.65
2023-12-11T11:16:19.892Z,13.25
2023-12-11T11:20:48.660Z,17.27
2023-12-11T11:24:55.215Z,14.25
2023-12-11T11:29:06.442Z,12.40
2023-12-11T11:33:32.743Z,10.52
2023-12-11T11:37:55.873Z,12.05
2023-12-11T11:42:33.727Z,12.20
2023-12-11T11:47:11.300Z,12.52
2023-12-11T11:51:17.626Z,18.10
2023-12-11T11:55:35.854Z,12.63
2023-12-11T11:59:47.664Z,13.30
2023-12-11T12:03:50.778Z,11.77
2023-12-11T12:07:54.269Z,10.00
2023-12-11T12:11:59.139Z,11.18
2023-12-11T12:16:02.332Z,8.38
2023-12-11T12:20:13.547Z,10.23
2023-12-11T12:24:16.670Z,13.48
2023-12-11T12:28:20.343Z,6.50
2023-12-11T12:32:24.759Z,6.13
2023-12-11T12:36:27.983Z,11.55
2023-12-11T12:40:37.644Z,11.75
2023-12-11T12:44:41.288Z,10.85
2023-12-11T12:48:44.318Z,10.48
2023-12-11T12:52:47.322Z,10.15
2023-12-11T12:57:00.291Z,7.25
2023-12-11T13:01:03.900Z,9.10
2023-12-11T13:05:08.527Z,8.48
2023-12-11T13:09:12.207Z,9.32
2023-12-11T13:13:16.267Z,8.93
2023-12-11T13:17:21.719Z,8.68
2023-12-11T13:21:25.447Z,10.15
2023-12-11T13:25:28.312Z,7.78
2023-12-11T13:29:37.053Z,10.73
2023-12-11T13:33:40.840Z,10.38
2023-12-11T13:37:43.748Z,8.18
2023-12-11T13:41:46.739Z,8.02
2023-12-11T13:45:50.225Z,19.23
2023-12-11T13:49:53.300Z,6.97
2023-12-11T13:53:56.253Z,15.50
2023-12-11T13:57:59.180Z,13.57
2023-12-11T14:02:02.153Z,9.65
2023-12-11T14:06:05.387Z,14.70
2023-12-11T14:10:09.709Z,14.80
2023-12-11T14:14:12.641Z,11.38
2023-12-11T14:18:15.707Z,11.45
2023-12-11T14:22:18.734Z,11.98
2023-12-11T14:26:22.630Z,11.68
2023-12-11T14:30:34.391Z,13.73
2023-12-11T14:34:42.863Z,11.45
2023-12-11T14:38:46.804Z,15.15
2023-12-11T14:42:49.776Z,12.63
2023-12-11T14:46:52.708Z,12.15
2023-12-11T14:50:55.652Z,7.82
2023-12-11T14:54:58.702Z,11.13
2023-12-11T14:59:02.148Z,9.43
2023-12-11T15:03:05.326Z,10.18
2023-12-11T15:07:08.259Z,17.63
2023-12-11T15:11:11.701Z,11.07
2023-12-11T15:15:14.650Z,13.60
2023-12-11T15:19:17.810Z,12.48
2023-12-11T15:23:21.197Z,16.15
2023-12-11T15:27:24.162Z,17.05
2023-12-11T15:31:27.328Z,13.93
2023-12-11T15:35:30.424Z,14.73
2023-12-11T15:39:33.562Z,18.10
2023-12-11T15:43:36.866Z,13.95
2023-12-11T15:48:00.159Z,14.98
2023-12-11T15:52:03.211Z,15.05
2023-12-11T15:56:06.551Z,15.90
2023-12-11T16:00:12.544Z,15.38
2023-12-11T16:04:15.634Z,20.53
2023-12-11T16:08:18.739Z,19.08
2023-12-11T16:12:21.950Z,21.63
2023-12-11T16:16:24.845Z,15.32
2023-12-11T16:20:28.696Z,19.35
2023-12-11T16:24:31.718Z,18.20
2023-12-11T16:28:35.026Z,14.38
2023-12-11T16:32:38.028Z,14.43
2023-12-11T16:36:40.947Z,18.02
2023-12-11T16:40:44.139Z,16.13
2023-12-11T16:44:47.596Z,13.90
2023-12-11T16:48:50.878Z,18.73
2023-12-11T16:52:54.003Z,21.05
2023-12-11T16:56:57.093Z,26.50
2023-12-11T17:01:00.111Z,17.30
2023-12-11T17:05:05.987Z,14.80
2023-12-11T17:09:12.831Z,15.38
2023-12-11T17:13:15.985Z,8.25
2023-12-11T17:17:20.316Z,12.23
2023-12-11T17:21:28.513Z,17.30
2023-12-11T17:25:35.103Z,11.00
2023-12-11T17:29:40.323Z,10.68
2023-12-11T17:33:43.924Z,16.80
2023-12-11T17:37:46.959Z,9.63
2023-12-11T17:41:49.994Z,15.48
2023-12-11T17:46:00.557Z,9.65
2023-12-11T17:50:08.939Z,11.45
2023-12-11T17:54:15.169Z,9.52
2023-12-11T17:58:18.322Z,12.63
2023-12-11T18:02:24.889Z,10.70
2023-12-11T18:06:32.993Z,11.00
2023-12-11T18:10:41.457Z,18.48
2023-12-11T18:14:44.589Z,9.40
2023-12-11T18:18:49.009Z,13.82
2023-12-11T18:22:51.927Z,18.05
2023-12-11T18:26:55.171Z,15.25
2023-12-11T18:31:02.110Z,13.85
2023-12-11T18:35:05.510Z,11.13
2023-12-11T18:39:14.895Z,15.50
2023-12-11T18:43:23.726Z,10.15
2023-12-11T18:47:29.376Z,9.50
2023-12-11T18:51:34.586Z,11.13
2023-12-11T18:55:38.232Z,6.28
2023-12-11T18:59:42.472Z,8.57
2023-12-11T19:03:46.919Z,11.10
2023-12-11T19:07:49.964Z,9.57
2023-12-11T19:11:53.227Z,12.98
2023-12-11T19:15:58.375Z,12.35
2023-12-11T19:20:01.450Z,5.97
2023-12-11T19:24:05.864Z,7.10
2023-12-11T19:28:11.585Z,9.00
2023-12-11T19:36:22.487Z,7.68
2023-12-11T19:44:29.473Z,9.10
2023-12-11T19:48:36.054Z,10.23
2023-12-11T19:56:58.519Z,7.05
2023-12-11T20:01:07.994Z,7.90
2023-12-11T20:05:13.151Z,6.85
2023-12-11T20:09:21.018Z,9.57
2023-12-11T20:13:40.615Z,6.53
2023-12-11T20:21:53.431Z,8.52
2023-12-11T20:26:03.333Z,6.05
2023-12-11T20:30:06.980Z,4.68
2023-12-11T20:34:10.180Z,7.55
2023-12-11T20:38:13.452Z,10.40
2023-12-11T20:42:18.261Z,10.75
2023-12-11T20:46:25.303Z,9.75
2023-12-11T20:50:29.994Z,11.90
2023-12-11T20:54:33.241Z,9.68
2023-12-11T20:58:38.466Z,9.07
2023-12-11T21:02:43.933Z,13.00
2023-12-11T21:06:47.628Z,10.23
2023-12-11T21:10:50.800Z,11.50
2023-12-11T21:14:53.804Z,10.13
2023-12-11T21:18:57.135Z,11.50
2023-12-11T21:23:01.479Z,13.15
2023-12-11T21:27:10.290Z,11.10
2023-12-11T21:31:32.711Z,11.93
2023-12-11T21:35:35.950Z,11.18
2023-12-11T21:39:39.319Z,9.95
2023-12-11T21:43:44.148Z,9.90
2023-12-11T21:47:47.628Z,8.98
2023-12-11T21:51:51.358Z,11.05
2023-12-11T21:55:56.625Z,10.25
2023-12-11T21:59:59.902Z,7.78
2023-12-11T22:04:03.385Z,12.98
2023-12-11T22:08:06.523Z,12.20
2023-12-11T22:12:09.603Z,11.30
2023-12-11T22:16:15.286Z,11.80
2023-12-11T22:20:18.329Z,10.23
2023-12-11T22:24:21.888Z,9.30
2023-12-11T22:28:25.365Z,9.95
2023-12-11T22:32:31.772Z,10.60
2023-12-11T22:36:35.060Z,10.27
2023-12-11T22:40:38.822Z,11.55
2023-12-11T22:44:45.574Z,12.10
2023-12-11T22:48:50.877Z,10.85
2023-12-11T22:52:53.906Z,8.05
2023-12-11T22:56:57.640Z,9.85
2023-12-11T23:01:03.478Z,8.30
2023-12-11T23:05:07.804Z,8.02
2023-12-11T23:09:12.980Z,9.95
2023-12-11T23:13:16.030Z,8.30
2023-12-11T23:17:19.149Z,12.02
2023-12-11T23:21:22.077Z,9.10
2023-12-11T23:25:25.235Z,10.38
2023-12-11T23:29:28.345Z,9.55
2023-12-11T23:33:31.632Z,6.25
2023-12-11T23:37:35.718Z,8.15
2023-12-11T23:41:39.345Z,8.45
2023-12-11T23:45:42.443Z,9.80
2023-12-11T23:49:45.524Z,5.45
2023-12-11T23:53:48.647Z,11.00
2023-12-11T23:57:51.928Z,7.03
